»·PEaware :: M-YRNA LIMF-LSZA

M-YRNA :: LIMF-LSZA

FLIGHT INFORMATION

Flight Status: Arrived
Operator: Privately registered:
Isle of Man
More flights under this callsign
Pilot: Angelo R. (1452)
Aircraft: BRITISH AERO BAe-3200 JETSTREAM SUPER 31
(JS32)
More flights by this aircraft type
Origin: LIMF Caselle
Italy
Destination: LSZA Lugano
Switzerland
More flights between these airports :: More routes between these airports
Route: TOP
File this flight plan on PilotEdge
Remarks: Testing FIR Milano, Italy
Altitude:
(Current/Filed)
12,000ft
Speed:
(Current/Filed)
220kts
Departed: 06-Jul-13 01:09 PM
Arrived: 06-Jul-13 01:56 PM
Distance/Time
Traveled:
71nm/0:47
Distance/Time
To Go:
Arrived

Flight Plot

Page will automatically refresh every two minutes.


Map Options




Map Legend


Flown Route
Filed Route
Departure Airport
Arrival Airport
Navaid (VOR, NDB)
Fix

Horizontal Profiles

Position Reports

Time Latitude Longitude Heading Altitude Ground
Speed
06-Jul-13 12:58 45.193035 7.645113 270 992ft 0kts
06-Jul-13 12:59 45.193035 7.645113 270 992ft 0kts
06-Jul-13 13:00 45.193035 7.645113 270 992ft 0kts
06-Jul-13 13:01 45.193035 7.645113 270 992ft 0kts
06-Jul-13 13:02 45.193035 7.645113 270 992ft 0kts
06-Jul-13 13:03 45.193035 7.645113 270 992ft 0kts
06-Jul-13 13:04 45.193035 7.645113 270 992ft 0kts
06-Jul-13 13:05 45.193187 7.645019 24 992ft 4kts
06-Jul-13 13:06 45.191490 7.646696 182 992ft 10kts
06-Jul-13 13:07 45.188457 7.646460 179 992ft 9kts
06-Jul-13 13:08 45.187857 7.647634 88 992ft 0kts
06-Jul-13 13:09 45.188429 7.648841 358 992ft 0kts
06-Jul-13 13:10 45.213439 7.650408 3 1760ft 155kts
06-Jul-13 13:11 45.247300 7.675543 88 3380ft 183kts
06-Jul-13 13:12 45.211913 7.729169 140 5167ft 196kts
06-Jul-13 13:13 45.158344 7.768610 157 6605ft 232kts
06-Jul-13 13:14 45.095708 7.797417 162 8110ft 241kts
06-Jul-13 13:15 45.030994 7.822783 163 9605ft 244kts
06-Jul-13 13:16 44.965687 7.847326 163 11094ft 243kts
06-Jul-13 13:17 44.927430 7.909946 87 12180ft 242kts
06-Jul-13 13:18 44.932525 8.010141 84 12200ft 262kts
06-Jul-13 13:19 44.937450 8.112563 81 12198ft 264kts
06-Jul-13 13:20 44.933441 8.215903 90 12199ft 266kts
06-Jul-13 13:21 44.935025 8.321271 85 12199ft 270kts
06-Jul-13 13:22 44.960464 8.412143 20 12212ft 266kts
06-Jul-13 13:23 45.031206 8.448993 18 12210ft 272kts
06-Jul-13 13:24 45.103260 8.483534 18 12224ft 275kts
06-Jul-13 13:25 45.176132 8.517454 18 12229ft 276kts
06-Jul-13 13:26 45.248669 8.551065 18 11176ft 271kts
06-Jul-13 13:27 45.319091 8.583738 18 9675ft 264kts
06-Jul-13 13:28 45.388183 8.615852 18 8179ft 260kts
06-Jul-13 13:29 45.456714 8.647784 18 6683ft 259kts
06-Jul-13 13:30 45.524421 8.679483 18 5968ft 251kts
06-Jul-13 13:31 45.587384 8.708841 18 5967ft 243kts
06-Jul-13 13:32 45.651468 8.738279 18 5968ft 241kts
06-Jul-13 13:33 45.714611 8.768318 18 5969ft 240kts
06-Jul-13 13:34 45.777880 8.798363 18 5967ft 239kts
06-Jul-13 13:35 45.840864 8.828198 18 5965ft 233kts
06-Jul-13 13:36 45.891889 8.831075 294 5966ft 172kts
06-Jul-13 13:37 45.867299 8.794199 197 6021ft 148kts
06-Jul-13 13:38 45.825429 8.776124 179 5957ft 163kts
06-Jul-13 13:39 45.824434 8.821332 23 6015ft 164kts
06-Jul-13 13:40 45.863891 8.841943 18 5969ft 140kts
06-Jul-13 13:41 45.901155 8.860095 18 5099ft 157kts
06-Jul-13 13:42 45.940168 8.879213 18 3359ft 150kts
06-Jul-13 13:43 45.976876 8.897159 18 2148ft 138kts
06-Jul-13 13:44 45.996063 8.920777 139 4450ft 113kts
06-Jul-13 13:45 45.966211 8.901331 234 5835ft 190kts
06-Jul-13 13:46 45.911268 8.864117 195 5970ft 246kts
06-Jul-13 13:47 45.868141 8.803917 239 5962ft 208kts
06-Jul-13 13:48 45.838546 8.825431 58 5967ft 177kts
06-Jul-13 13:49 45.879650 8.849783 18 5957ft 144kts
06-Jul-13 13:50 45.917508 8.868153 18 4632ft 144kts
06-Jul-13 13:51 45.955079 8.886510 18 3131ft 142kts
06-Jul-13 13:52 45.986454 8.906759 33 3088ft 121kts
06-Jul-13 13:53 46.015901 8.935034 33 3091ft 133kts
06-Jul-13 13:54 46.047626 8.963870 9 3134ft 127kts
06-Jul-13 13:55 46.043958 8.933801 211 2386ft 125kts
06-Jul-13 13:56 46.011941 8.914277 197 1019ft 115kts
06-Jul-13 13:57 46.001523 8.908184 288 918ft 0kts
06-Jul-13 13:58 46.001650 8.907672 292 917ft 5kts
06-Jul-13 13:59 46.001360 8.906921 202 917ft 0kts
06-Jul-13 14:00 46.001360 8.906921 202 917ft 0kts
06-Jul-13 14:01 46.001360 8.906921 202 917ft 0kts
06-Jul-13 14:02 46.001360 8.906921 202 917ft 0kts
06-Jul-13 14:03 46.001360 8.906921 202 917ft 0kts
06-Jul-13 14:04 46.001360 8.906921 202 917ft 0kts
06-Jul-13 14:05 46.001360 8.906921 202 917ft 0kts
06-Jul-13 14:06 46.001360 8.906921 202 917ft 0kts
06-Jul-13 14:07 46.001360 8.906921 202 917ft 0kts

Navigation Log

Ident Type
1. LIMF Airport
2. TOP Navaid
3. LSZA Airport